createdAt,value
2023-05-07T00:01:20.107Z,17.54
2023-05-07T00:03:46.965Z,17.53
2023-05-07T00:06:13.949Z,17.52
2023-05-07T00:08:40.382Z,17.50
2023-05-07T00:11:07.009Z,17.49
2023-05-07T00:13:36.262Z,17.46
2023-05-07T00:16:04.174Z,17.45
2023-05-07T00:18:30.780Z,17.42
2023-05-07T00:20:57.357Z,17.40
2023-05-07T00:23:24.236Z,17.36
2023-05-07T00:25:50.655Z,17.32
2023-05-07T00:28:17.079Z,17.28
2023-05-07T00:30:43.602Z,17.25
2023-05-07T00:33:10.145Z,17.20
2023-05-07T00:35:36.610Z,17.16
2023-05-07T00:38:03.115Z,17.12
2023-05-07T00:40:29.567Z,17.09
2023-05-07T00:42:59.124Z,17.08
2023-05-07T00:45:29.856Z,17.08
2023-05-07T00:47:59.265Z,17.08
2023-05-07T00:50:27.593Z,17.06
2023-05-07T00:52:54.545Z,17.03
2023-05-07T00:55:21.264Z,16.99
2023-05-07T00:57:47.812Z,16.94
2023-05-07T01:00:14.819Z,16.89
2023-05-07T01:02:42.029Z,16.82
2023-05-07T01:05:12.451Z,16.76
2023-05-07T01:07:41.625Z,16.71
2023-05-07T01:10:09.988Z,16.64
2023-05-07T01:12:38.571Z,16.60
2023-05-07T01:15:06.564Z,16.57
2023-05-07T01:17:37.527Z,16.55
2023-05-07T01:20:05.994Z,16.52
2023-05-07T01:22:34.609Z,16.51
2023-05-07T01:25:02.570Z,16.50
2023-05-07T01:27:29.192Z,16.50
2023-05-07T01:29:56.569Z,16.46
2023-05-07T01:32:30.109Z,16.44
2023-05-07T01:34:58.479Z,16.39
2023-05-07T01:37:26.519Z,16.36
2023-05-07T01:39:54.139Z,16.33
2023-05-07T01:42:20.815Z,16.29
2023-05-07T01:44:47.425Z,16.25
2023-05-07T01:47:15.113Z,16.22
2023-05-07T01:49:43.060Z,16.20
2023-05-07T01:52:11.655Z,16.17
2023-05-07T01:54:38.391Z,16.15
2023-05-07T01:57:04.766Z,16.11
2023-05-07T01:59:31.201Z,16.10
2023-05-07T02:01:57.604Z,16.07
2023-05-07T02:04:24.246Z,16.07
2023-05-07T02:06:50.878Z,16.04
2023-05-07T02:09:18.716Z,16.00
2023-05-07T02:11:45.369Z,15.99
2023-05-07T02:14:12.026Z,15.96
2023-05-07T02:16:38.476Z,15.93
2023-05-07T02:19:04.872Z,15.89
2023-05-07T02:21:31.381Z,15.85
2023-05-07T02:23:57.859Z,15.82
2023-05-07T02:26:24.206Z,15.78
2023-05-07T02:28:50.734Z,15.73
2023-05-07T02:31:17.139Z,15.69
2023-05-07T02:33:43.609Z,15.67
2023-05-07T02:36:10.963Z,15.65
2023-05-07T02:38:37.722Z,15.63
2023-05-07T02:41:04.245Z,15.62
2023-05-07T02:43:30.668Z,15.61
2023-05-07T02:46:03.928Z,15.62
2023-05-07T02:48:30.513Z,15.58
2023-05-07T02:50:56.929Z,15.55
2023-05-07T02:53:23.460Z,15.52
2023-05-07T02:55:49.990Z,15.51
2023-05-07T02:58:16.428Z,15.49
2023-05-07T03:00:42.894Z,15.48
2023-05-07T03:03:09.442Z,15.47
2023-05-07T03:05:36.033Z,15.45
2023-05-07T03:08:02.497Z,15.44
2023-05-07T03:10:28.935Z,15.41
2023-05-07T03:12:55.368Z,15.38
2023-05-07T03:15:22.636Z,15.34
2023-05-07T03:17:49.580Z,15.34
2023-05-07T03:20:16.370Z,15.31
2023-05-07T03:22:43.140Z,15.29
2023-05-07T03:25:10.317Z,15.29
2023-05-07T03:27:36.819Z,15.27
2023-05-07T03:30:03.871Z,15.24
2023-05-07T03:32:30.252Z,15.22
2023-05-07T03:34:56.810Z,15.19
2023-05-07T03:37:23.275Z,15.16
2023-05-07T03:39:49.632Z,15.13
2023-05-07T03:42:16.128Z,15.09
2023-05-07T03:44:42.558Z,15.04
2023-05-07T03:47:09.008Z,15.01
2023-05-07T03:49:35.781Z,14.99
2023-05-07T03:52:02.284Z,14.98
2023-05-07T03:54:28.732Z,14.96
2023-05-07T03:56:55.245Z,14.96
2023-05-07T03:59:21.689Z,14.95
2023-05-07T04:01:48.159Z,14.93
2023-05-07T04:04:15.123Z,14.92
2023-05-07T04:06:42.150Z,14.91
2023-05-07T04:09:08.728Z,14.91
2023-05-07T04:11:36.957Z,14.93
2023-05-07T04:14:03.360Z,14.95
2023-05-07T04:16:29.810Z,14.96
2023-05-07T04:18:56.255Z,14.97
2023-05-07T04:21:22.666Z,14.97
2023-05-07T04:23:49.515Z,14.98
2023-05-07T04:26:16.928Z,14.99
2023-05-07T04:28:43.425Z,15.01
2023-05-07T04:31:09.948Z,15.01
2023-05-07T04:33:36.351Z,15.01
2023-05-07T04:36:04.882Z,15.02
2023-05-07T04:38:32.429Z,15.03
2023-05-07T04:41:03.799Z,15.03
2023-05-07T04:43:30.554Z,15.02
2023-05-07T04:45:56.957Z,15.03
2023-05-07T04:48:23.373Z,15.01
2023-05-07T04:50:50.833Z,14.99
2023-05-07T04:53:18.600Z,15.00
2023-05-07T04:55:46.166Z,14.99
2023-05-07T04:58:13.218Z,15.01
2023-05-07T05:00:40.271Z,15.02
2023-05-07T05:03:09.770Z,15.05
2023-05-07T05:05:36.313Z,15.07
2023-05-07T05:08:02.756Z,15.10
2023-05-07T05:10:29.191Z,15.15
2023-05-07T05:12:55.860Z,15.19
2023-05-07T05:15:22.566Z,15.23
2023-05-07T05:17:49.066Z,15.27
2023-05-07T05:20:15.843Z,15.33
2023-05-07T05:22:43.307Z,15.36
2023-05-07T05:25:10.045Z,15.41
2023-05-07T05:27:36.799Z,15.45
2023-05-07T05:30:04.252Z,15.48
2023-05-07T05:32:30.624Z,15.52
2023-05-07T05:34:57.026Z,15.55
2023-05-07T05:37:23.727Z,15.57
2023-05-07T05:39:50.260Z,15.60
2023-05-07T05:42:16.729Z,15.62
2023-05-07T05:44:43.074Z,15.64
2023-05-07T05:47:09.476Z,15.66
2023-05-07T05:49:36.126Z,15.67
2023-05-07T05:52:02.746Z,15.71
2023-05-07T05:54:29.210Z,15.74
2023-05-07T05:56:55.760Z,15.78
2023-05-07T05:59:22.298Z,15.82
2023-05-07T06:01:48.830Z,15.88
2023-05-07T06:04:15.183Z,15.92
2023-05-07T06:06:41.704Z,15.98
2023-05-07T06:09:08.097Z,16.03
2023-05-07T06:11:34.473Z,16.09
2023-05-07T06:14:01.193Z,16.15
2023-05-07T06:16:27.574Z,16.22
2023-05-07T06:18:54.033Z,16.30
2023-05-07T06:21:20.458Z,16.37
2023-05-07T06:23:46.796Z,16.43
2023-05-07T06:26:13.283Z,16.48
2023-05-07T06:28:39.651Z,16.52
2023-05-07T06:31:17.160Z,16.57
2023-05-07T06:33:45.268Z,16.61
2023-05-07T06:36:11.682Z,16.63
2023-05-07T06:38:38.072Z,16.66
2023-05-07T06:41:04.472Z,16.72
2023-05-07T06:43:30.812Z,16.75
2023-05-07T06:45:57.297Z,16.79
2023-05-07T06:48:23.849Z,16.83
2023-05-07T06:50:50.379Z,16.91
2023-05-07T06:53:16.811Z,16.97
2023-05-07T06:55:43.191Z,17.05
2023-05-07T06:58:09.608Z,17.15
2023-05-07T07:00:36.143Z,17.23
2023-05-07T07:03:02.579Z,17.31
2023-05-07T07:05:29.188Z,17.40
2023-05-07T07:07:55.731Z,17.49
2023-05-07T07:10:22.899Z,17.60
2023-05-07T07:12:50.375Z,17.69
2023-05-07T07:15:17.516Z,17.80
2023-05-07T07:17:44.005Z,17.88
2023-05-07T07:20:12.265Z,17.99
2023-05-07T07:22:38.810Z,18.08
2023-05-07T07:25:05.609Z,18.17
2023-05-07T07:27:32.020Z,18.27
2023-05-07T07:29:58.365Z,18.38
2023-05-07T07:32:24.926Z,18.46
2023-05-07T07:34:51.333Z,18.58
2023-05-07T07:37:17.846Z,18.64
2023-05-07T07:39:44.397Z,18.70
2023-05-07T07:42:10.791Z,18.76
2023-05-07T07:44:37.249Z,18.80
2023-05-07T07:47:03.813Z,18.83
2023-05-07T07:49:30.256Z,18.88
2023-05-07T07:51:59.567Z,18.91
2023-05-07T07:54:26.697Z,18.96
2023-05-07T07:56:53.277Z,18.98
2023-05-07T07:59:20.035Z,19.02
2023-05-07T08:01:46.535Z,19.06
2023-05-07T08:04:13.080Z,19.08
2023-05-07T08:06:39.696Z,19.12
2023-05-07T08:09:06.108Z,19.16
2023-05-07T08:11:32.510Z,19.21
2023-05-07T08:13:59.116Z,19.28
2023-05-07T08:16:26.047Z,19.36
2023-05-07T08:18:52.435Z,19.44
2023-05-07T08:21:18.852Z,19.53
2023-05-07T08:23:45.733Z,19.62
2023-05-07T08:26:12.271Z,19.69
2023-05-07T08:28:38.730Z,19.78
2023-05-07T08:31:05.270Z,19.85
2023-05-07T08:33:32.107Z,19.92
2023-05-07T08:35:58.532Z,19.96
2023-05-07T08:38:25.006Z,20.00
2023-05-07T08:40:51.418Z,20.06
2023-05-07T08:43:19.274Z,20.12
2023-05-07T08:45:46.854Z,20.20
2023-05-07T08:48:18.139Z,20.29
2023-05-07T08:50:44.608Z,20.36
2023-05-07T08:53:11.032Z,20.45
2023-05-07T08:55:37.474Z,20.55
2023-05-07T08:58:04.927Z,20.62
2023-05-07T09:00:31.398Z,20.68
2023-05-07T09:02:57.867Z,20.72
2023-05-07T09:05:24.373Z,20.76
2023-05-07T09:07:53.971Z,20.81
2023-05-07T09:10:22.022Z,20.87
2023-05-07T09:12:48.936Z,20.94
2023-05-07T09:15:15.594Z,21.01
2023-05-07T09:17:43.335Z,21.10
2023-05-07T09:20:11.061Z,21.20
2023-05-07T09:22:38.403Z,21.29
2023-05-07T09:25:06.986Z,21.36
2023-05-07T09:27:33.426Z,21.42
2023-05-07T09:29:59.843Z,21.48
2023-05-07T09:32:28.191Z,21.55
2023-05-07T09:34:55.184Z,21.60
2023-05-07T09:37:21.623Z,21.67
2023-05-07T09:39:50.102Z,21.73
2023-05-07T09:42:16.531Z,21.78
2023-05-07T09:44:48.333Z,21.81
2023-05-07T09:47:20.498Z,21.84
2023-05-07T09:49:49.014Z,21.84
2023-05-07T09:52:15.997Z,21.86
2023-05-07T09:54:46.135Z,21.95
2023-05-07T09:57:17.397Z,22.00
2023-05-07T09:59:44.908Z,22.09
2023-05-07T10:02:14.019Z,22.15
2023-05-07T10:04:41.419Z,22.22
2023-05-07T10:07:08.736Z,22.30
2023-05-07T10:09:39.361Z,22.38
2023-05-07T10:12:07.113Z,22.46
2023-05-07T10:14:34.596Z,22.54
2023-05-07T10:17:02.530Z,22.63
2023-05-07T10:19:30.404Z,22.70
2023-05-07T10:22:04.342Z,22.77
2023-05-07T10:24:34.997Z,22.85
2023-05-07T10:27:03.784Z,22.89
2023-05-07T10:30:04.063Z,22.99
2023-05-07T10:32:39.894Z,23.05
2023-05-07T10:35:12.498Z,23.08
2023-05-07T10:37:39.959Z,23.09
2023-05-07T10:40:08.322Z,23.11
2023-05-07T10:42:35.314Z,23.14
2023-05-07T10:45:17.941Z,23.20
2023-05-07T10:48:27.986Z,23.23
2023-05-07T10:51:20.789Z,23.25
2023-05-07T10:53:47.721Z,23.20
2023-05-07T10:56:21.487Z,23.12
2023-05-07T10:58:48.303Z,23.00
2023-05-07T11:01:15.992Z,22.89
2023-05-07T11:04:27.169Z,22.78
2023-05-07T11:07:12.237Z,22.73
2023-05-07T11:09:53.606Z,22.74
2023-05-07T11:12:38.576Z,22.75
2023-05-07T11:15:09.928Z,22.77
2023-05-07T11:17:54.215Z,22.80
2023-05-07T11:20:21.433Z,22.82
2023-05-07T11:22:48.703Z,22.82
2023-05-07T11:25:20.171Z,22.83
2023-05-07T11:27:46.901Z,22.83
2023-05-07T11:30:22.851Z,22.87
2023-05-07T11:32:49.594Z,22.94
2023-05-07T11:35:16.703Z,22.97
2023-05-07T11:37:45.840Z,23.01
2023-05-07T11:40:14.732Z,23.06
2023-05-07T11:42:45.101Z,23.12
2023-05-07T11:45:11.967Z,23.20
2023-05-07T11:47:38.747Z,23.29
2023-05-07T11:50:08.302Z,23.40
2023-05-07T11:52:35.815Z,23.49
2023-05-07T11:55:04.505Z,23.59
2023-05-07T11:57:31.143Z,23.71
2023-05-07T11:59:59.302Z,23.83
2023-05-07T12:02:26.802Z,23.93
2023-05-07T12:04:54.113Z,24.00
2023-05-07T12:07:20.855Z,24.04
2023-05-07T12:09:48.326Z,24.06
2023-05-07T12:12:27.409Z,24.07
2023-05-07T12:14:53.769Z,24.08
2023-05-07T12:17:21.155Z,24.07
2023-05-07T12:19:57.335Z,24.06
2023-05-07T12:22:23.769Z,24.01
2023-05-07T12:24:57.612Z,23.99
2023-05-07T12:27:24.274Z,23.97
2023-05-07T12:29:51.829Z,23.96
2023-05-07T12:32:21.959Z,23.95
2023-05-07T12:34:51.970Z,23.95
2023-05-07T12:37:27.544Z,23.96
2023-05-07T12:40:08.580Z,23.97
2023-05-07T12:42:39.516Z,23.97
2023-05-07T12:45:14.301Z,23.97
2023-05-07T12:47:48.501Z,23.99
2023-05-07T12:50:16.517Z,23.97
2023-05-07T12:52:45.803Z,23.98
2023-05-07T12:55:15.412Z,23.95
2023-05-07T12:57:49.520Z,23.92
2023-05-07T13:00:16.273Z,23.86
2023-05-07T13:02:47.609Z,23.83
2023-05-07T13:05:14.454Z,23.81
2023-05-07T13:07:41.754Z,23.81
2023-05-07T13:10:08.938Z,23.83
2023-05-07T13:12:35.975Z,23.90
2023-05-07T13:15:02.404Z,23.97
2023-05-07T13:17:28.851Z,24.04
2023-05-07T13:19:55.299Z,24.14
2023-05-07T13:22:21.638Z,24.24
2023-05-07T13:24:48.097Z,24.32
2023-05-07T13:27:14.495Z,24.40
2023-05-07T13:29:40.906Z,24.48
2023-05-07T13:32:07.373Z,24.55
2023-05-07T13:34:34.248Z,24.61
2023-05-07T13:37:00.614Z,24.67
2023-05-07T13:39:27.118Z,24.71
2023-05-07T13:41:53.615Z,24.75
2023-05-07T13:44:19.949Z,24.78
2023-05-07T13:46:46.514Z,24.80
2023-05-07T13:49:13.865Z,24.83
2023-05-07T13:51:40.348Z,24.86
2023-05-07T13:54:06.814Z,24.89
2023-05-07T13:56:33.519Z,24.89
2023-05-07T13:59:00.998Z,24.87
2023-05-07T14:01:28.449Z,24.82
2023-05-07T14:03:55.141Z,24.74
2023-05-07T14:06:21.549Z,24.67
2023-05-07T14:08:47.997Z,24.63
2023-05-07T14:11:14.397Z,24.61
2023-05-07T14:13:41.053Z,24.59
2023-05-07T14:16:07.493Z,24.59
2023-05-07T14:18:35.428Z,24.61
2023-05-07T14:21:01.887Z,24.62
2023-05-07T14:23:28.702Z,24.64
2023-05-07T14:25:58.130Z,24.67
2023-05-07T14:28:24.927Z,24.69
2023-05-07T14:30:51.310Z,24.67
2023-05-07T14:33:18.119Z,24.63
2023-05-07T14:35:48.944Z,24.59
2023-05-07T14:38:16.553Z,24.52
2023-05-07T14:40:43.208Z,24.46
2023-05-07T14:43:09.594Z,24.42
2023-05-07T14:45:36.010Z,24.38
2023-05-07T14:48:02.932Z,24.36
2023-05-07T14:50:29.318Z,24.33
2023-05-07T14:52:55.864Z,24.28
2023-05-07T14:55:22.422Z,24.21
2023-05-07T14:57:48.847Z,24.15
2023-05-07T15:00:15.294Z,24.08
2023-05-07T15:02:41.749Z,24.02
2023-05-07T15:05:08.415Z,23.99
2023-05-07T15:07:35.310Z,23.95
2023-05-07T15:10:01.921Z,23.97
2023-05-07T15:12:28.365Z,23.97
2023-05-07T15:14:54.833Z,24.00
2023-05-07T15:17:21.254Z,24.01
2023-05-07T15:19:47.666Z,24.03
2023-05-07T15:22:14.091Z,24.03
2023-05-07T15:24:41.886Z,24.05
2023-05-07T15:27:08.238Z,24.06
2023-05-07T15:29:34.638Z,24.04
2023-05-07T15:32:01.109Z,24.02
2023-05-07T15:34:28.309Z,24.01
2023-05-07T15:36:57.682Z,23.98
2023-05-07T15:39:25.097Z,23.96
2023-05-07T15:41:51.685Z,23.93
2023-05-07T15:44:18.107Z,23.92
2023-05-07T15:46:44.492Z,23.92
2023-05-07T15:49:11.493Z,23.93
2023-05-07T15:51:37.936Z,23.96
2023-05-07T15:54:04.488Z,23.96
2023-05-07T15:56:33.886Z,23.97
2023-05-07T15:59:00.749Z,23.96
2023-05-07T16:01:27.181Z,23.94
2023-05-07T16:03:53.668Z,23.94
2023-05-07T16:06:20.166Z,23.93
2023-05-07T16:08:46.514Z,23.94
2023-05-07T16:11:12.896Z,23.94
2023-05-07T16:13:39.269Z,23.94
2023-05-07T16:16:06.397Z,23.92
2023-05-07T16:18:33.600Z,23.88
2023-05-07T16:21:00.964Z,23.80
2023-05-07T16:23:27.550Z,23.73
2023-05-07T16:25:53.955Z,23.67
2023-05-07T16:28:20.593Z,23.62
2023-05-07T16:30:47.085Z,23.57
2023-05-07T16:33:13.490Z,23.55
2023-05-07T16:35:40.042Z,23.51
2023-05-07T16:38:10.290Z,23.48
2023-05-07T16:40:40.287Z,23.46
2023-05-07T16:43:06.658Z,23.42
2023-05-07T16:45:33.046Z,23.37
2023-05-07T16:47:59.609Z,23.30
2023-05-07T16:50:26.083Z,23.20
2023-05-07T16:52:52.452Z,23.09
2023-05-07T16:55:18.858Z,22.96
2023-05-07T16:57:45.365Z,22.85
2023-05-07T17:00:12.350Z,22.73
2023-05-07T17:02:38.878Z,22.61
2023-05-07T17:05:08.479Z,22.50
2023-05-07T17:07:35.304Z,22.40
2023-05-07T17:10:02.729Z,22.30
2023-05-07T17:12:47.764Z,22.21
2023-05-07T17:15:14.396Z,22.13
2023-05-07T17:17:41.867Z,22.09
2023-05-07T17:20:08.885Z,22.06
2023-05-07T17:22:35.368Z,22.04
2023-05-07T17:25:04.118Z,22.02
2023-05-07T17:27:40.072Z,22.00
2023-05-07T17:30:06.755Z,21.99
2023-05-07T17:32:35.037Z,21.92
2023-05-07T17:35:01.820Z,21.88
2023-05-07T17:37:28.243Z,21.84
2023-05-07T17:39:54.778Z,21.79
2023-05-07T17:42:21.280Z,21.73
2023-05-07T17:44:47.679Z,21.69
2023-05-07T17:47:14.431Z,21.64
2023-05-07T17:49:41.876Z,21.59
2023-05-07T17:52:08.853Z,21.56
2023-05-07T17:54:35.243Z,21.51
2023-05-07T17:57:01.670Z,21.45
2023-05-07T17:59:28.773Z,21.39
2023-05-07T18:01:55.342Z,21.34
2023-05-07T18:04:21.888Z,21.26
2023-05-07T18:06:48.591Z,21.18
2023-05-07T18:09:15.203Z,21.09
2023-05-07T18:11:41.636Z,20.98
2023-05-07T18:14:08.116Z,20.88
2023-05-07T18:16:34.702Z,20.81
2023-05-07T18:19:02.239Z,20.72
2023-05-07T18:21:28.705Z,20.63
2023-05-07T18:23:55.058Z,20.56
2023-05-07T18:26:21.572Z,20.49
2023-05-07T18:28:47.968Z,20.42
2023-05-07T18:31:14.484Z,20.34
2023-05-07T18:33:40.887Z,20.28
2023-05-07T18:36:07.299Z,20.21
2023-05-07T18:38:34.007Z,20.11
2023-05-07T18:41:02.809Z,20.03
2023-05-07T18:43:29.241Z,19.94
2023-05-07T18:45:55.683Z,19.86
2023-05-07T18:48:22.172Z,19.78
2023-05-07T18:50:49.261Z,19.72
2023-05-07T18:53:15.733Z,19.65
2023-05-07T18:55:42.172Z,19.61
2023-05-07T18:58:08.617Z,19.55
2023-05-07T19:00:35.084Z,19.48
2023-05-07T19:03:01.618Z,19.43
2023-05-07T19:05:28.111Z,19.35
2023-05-07T19:07:54.526Z,19.27
2023-05-07T19:10:21.259Z,19.17
2023-05-07T19:12:47.810Z,19.09
2023-05-07T19:15:14.368Z,18.99
2023-05-07T19:17:40.755Z,18.93
2023-05-07T19:22:39.327Z,18.77
2023-05-07T19:25:06.367Z,18.69
2023-05-07T19:27:32.712Z,18.61
2023-05-07T19:29:59.238Z,18.53
2023-05-07T19:32:26.198Z,18.46
2023-05-07T19:34:52.854Z,18.40
2023-05-07T19:37:22.838Z,18.30
2023-05-07T19:39:49.363Z,18.26
2023-05-07T19:42:15.918Z,18.19
2023-05-07T19:44:42.406Z,18.13
2023-05-07T19:47:09.385Z,18.09
2023-05-07T19:49:36.013Z,18.01
2023-05-07T19:52:02.657Z,17.95
2023-05-07T19:54:29.273Z,17.90
2023-05-07T19:56:56.841Z,17.86
2023-05-07T19:59:24.056Z,17.80
2023-05-07T20:01:50.587Z,17.74
2023-05-07T20:04:17.058Z,17.67
2023-05-07T20:06:43.501Z,17.62
2023-05-07T20:09:12.634Z,17.56
2023-05-07T20:11:39.795Z,17.50
2023-05-07T20:14:06.199Z,17.44
2023-05-07T20:16:33.630Z,17.41
2023-05-07T20:19:00.403Z,17.36
2023-05-07T20:21:26.858Z,17.31
2023-05-07T20:23:54.238Z,17.28
2023-05-07T20:26:21.262Z,17.23
2023-05-07T20:28:47.709Z,17.19
2023-05-07T20:31:14.263Z,17.15
2023-05-07T20:33:41.000Z,17.13
2023-05-07T20:36:08.213Z,17.09
2023-05-07T20:38:34.529Z,17.05
2023-05-07T20:41:12.609Z,17.01
2023-05-07T20:43:39.018Z,16.96
2023-05-07T20:46:07.553Z,16.93
2023-05-07T20:48:34.292Z,16.90
2023-05-07T20:51:01.843Z,16.87
2023-05-07T20:53:29.839Z,16.86
2023-05-07T20:55:56.887Z,16.82
2023-05-07T20:58:26.531Z,16.80
2023-05-07T21:00:53.752Z,16.79
2023-05-07T21:03:20.670Z,16.78
2023-05-07T21:05:54.154Z,16.79
2023-05-07T21:08:21.028Z,16.78
2023-05-07T21:10:47.866Z,16.77
2023-05-07T21:13:14.965Z,16.78
2023-05-07T21:15:42.914Z,16.78
2023-05-07T21:18:12.665Z,16.78
2023-05-07T21:20:39.143Z,16.78
2023-05-07T21:23:05.780Z,16.75
2023-05-07T21:25:32.243Z,16.73
2023-05-07T21:27:58.619Z,16.70
2023-05-07T21:30:25.388Z,16.67
2023-05-07T21:32:52.928Z,16.66
2023-05-07T21:35:19.664Z,16.62
2023-05-07T21:37:46.124Z,16.61
2023-05-07T21:40:13.162Z,16.59
2023-05-07T21:42:39.909Z,16.58
2023-05-07T21:45:06.766Z,16.57
2023-05-07T21:47:33.378Z,16.53
2023-05-07T21:50:00.981Z,16.51
2023-05-07T21:52:27.399Z,16.49
2023-05-07T21:54:53.952Z,16.45
2023-05-07T21:57:21.108Z,16.42
2023-05-07T21:59:47.598Z,16.38
2023-05-07T22:02:13.988Z,16.32
2023-05-07T22:04:40.473Z,16.28
2023-05-07T22:07:06.864Z,16.22
2023-05-07T22:09:33.245Z,16.19
2023-05-07T22:11:59.659Z,16.15
2023-05-07T22:14:26.102Z,16.11
2023-05-07T22:16:52.608Z,16.08
2023-05-07T22:19:19.093Z,16.06
2023-05-07T22:21:45.608Z,16.03
2023-05-07T22:24:12.548Z,15.99
2023-05-07T22:26:38.901Z,15.97
2023-05-07T22:29:05.353Z,15.92
2023-05-07T22:31:31.781Z,15.88
2023-05-07T22:33:58.302Z,15.85
2023-05-07T22:36:24.724Z,15.82
2023-05-07T22:38:51.160Z,15.81
2023-05-07T22:41:17.717Z,15.79
2023-05-07T22:43:44.135Z,15.78
2023-05-07T22:46:10.810Z,15.76
2023-05-07T22:48:37.301Z,15.75
2023-05-07T22:51:04.047Z,15.73
2023-05-07T22:53:30.894Z,15.74
2023-05-07T22:55:57.641Z,15.74
2023-05-07T22:58:24.195Z,15.74
2023-05-07T23:00:50.635Z,15.73
2023-05-07T23:03:17.049Z,15.73
2023-05-07T23:05:44.235Z,15.73
2023-05-07T23:08:11.362Z,15.72
2023-05-07T23:10:37.772Z,15.71
2023-05-07T23:13:04.350Z,15.69
2023-05-07T23:15:31.892Z,15.67
2023-05-07T23:17:58.333Z,15.64
2023-05-07T23:20:24.966Z,15.61
2023-05-07T23:22:51.379Z,15.59
2023-05-07T23:25:18.129Z,15.56
2023-05-07T23:27:44.555Z,15.54
2023-05-07T23:30:11.715Z,15.51
2023-05-07T23:32:38.347Z,15.49
2023-05-07T23:35:05.212Z,15.47
2023-05-07T23:37:31.637Z,15.45
2023-05-07T23:39:57.967Z,15.41
2023-05-07T23:42:24.408Z,15.39
2023-05-07T23:44:50.750Z,15.35
2023-05-07T23:47:17.589Z,15.33
2023-05-07T23:49:43.992Z,15.32
2023-05-07T23:52:10.457Z,15.30
2023-05-07T23:54:37.176Z,15.31
2023-05-07T23:57:04.462Z,15.30
2023-05-07T23:59:30.856Z,15.30
